Time;durP1;ratioP1;P1;durP2;ratioP2;P2;SDS_P1;SDS_P2;PMS_P1;PMS_P2;Temp;Humidity;BMP_temperature;BMP_pressure;BME280_temperature;BME280_humidity;BME280_pressure;Samples;Min_cycle;Max_cycle;Signal;HPM_P1;HPM_P2
2023/08/11 00:02:01;;;;;;;10.32;4.05;;;;;;;24.36;61.29;101336.28;5054365;28;20152;-69
2023/08/11 00:04:29;;;;;;;10.18;4.07;;;;;;;24.31;61.34;101345.13;5048074;28;20425;-69
2023/08/11 00:06:57;;;;;;;8.15;4.30;;;;;;;24.20;62.06;101338.63;5036113;28;20053;-69
2023/08/11 00:09:26;;;;;;;8.63;4.03;;;;;;;24.22;61.98;101331.38;5035889;28;20053;-70
2023/08/11 00:11:55;;;;;;;10.50;4.53;;;;;;;24.21;61.99;101332.59;5052872;28;20053;-68
2023/08/11 00:14:22;;;;;;;10.40;3.90;;;;;;;24.24;62.03;101339.44;5055180;28;20056;-68
2023/08/11 00:16:49;;;;;;;9.82;3.88;;;;;;;24.25;62.06;101329.78;5054649;28;20057;-68
2023/08/11 00:19:16;;;;;;;6.75;3.80;;;;;;;24.19;61.87;101334.97;5053278;28;20718;-69
2023/08/11 00:21:44;;;;;;;9.73;4.32;;;;;;;23.84;63.49;101339.47;5052785;28;20071;-68
2023/08/11 00:24:11;;;;;;;8.13;4.22;;;;;;;23.79;63.79;101342.63;5045507;28;20532;-68
2023/08/11 00:26:38;;;;;;;6.97;3.83;;;;;;;23.72;64.32;101345.38;5055353;28;20057;-69
2023/08/11 00:29:06;;;;;;;7.82;4.13;;;;;;;23.93;63.96;101345.56;5056644;28;20055;-69
2023/08/11 00:31:35;;;;;;;8.55;3.72;;;;;;;23.96;63.35;101339.16;5073721;28;20045;-69
2023/08/11 00:34:03;;;;;;;6.67;3.90;;;;;;;24.03;63.04;101337.25;5056499;28;20072;-69
2023/08/11 00:36:30;;;;;;;7.55;3.85;;;;;;;24.03;63.12;101342.88;5051357;28;20049;-69
2023/08/11 00:39:00;;;;;;;8.00;3.95;;;;;;;24.12;62.77;101334.09;5055484;28;20053;-69
2023/08/11 00:41:27;;;;;;;7.00;3.70;;;;;;;24.15;62.93;101334.13;5053123;28;20057;-69
2023/08/11 00:43:55;;;;;;;8.95;3.78;;;;;;;23.85;64.10;101341.88;5054713;28;20484;-68
2023/08/11 00:46:23;;;;;;;8.32;3.95;;;;;;;23.86;63.85;101339.88;5053531;28;20049;-70
2023/08/11 00:48:53;;;;;;;6.85;3.53;;;;;;;23.77;64.34;101330.94;5036872;28;20056;-68
2023/08/11 00:51:22;;;;;;;9.20;4.00;;;;;;;23.70;64.37;101326.06;5037530;28;20052;-69
2023/08/11 00:53:51;;;;;;;9.80;3.92;;;;;;;23.64;64.88;101332.44;5049252;28;20052;-69
2023/08/11 00:56:19;;;;;;;9.80;4.20;;;;;;;23.57;65.24;101326.75;5053733;28;20045;-68
2023/08/11 00:58:49;;;;;;;5.95;3.88;;;;;;;23.33;66.14;101326.09;5064690;28;20080;-70
2023/08/11 01:01:16;;;;;;;8.25;3.70;;;;;;;23.24;66.67;101331.19;5040487;28;20060;-69
2023/08/11 01:03:47;;;;;;;7.72;3.50;;;;;;;23.57;65.57;101321.94;5059554;28;20063;-68
2023/08/11 01:06:40;;;;;;;7.57;3.88;;;;;;;23.55;65.54;101323.50;5054458;28;20049;-70
2023/08/11 01:09:20;;;;;;;7.53;3.58;;;;;;;23.49;65.69;101328.66;5032422;28;20053;-69
2023/08/11 01:11:50;;;;;;;;;;;;;;;23.31;66.27;101322.84;5038419;28;20662;-68
2023/08/11 01:14:22;;;;;;;6.18;3.53;;;;;;;23.57;65.52;101327.56;5041419;28;20379;-69
2023/08/11 01:16:52;;;;;;;7.70;3.83;;;;;;;23.54;65.28;101328.31;5053152;28;20056;-69
2023/08/11 01:19:34;;;;;;;6.38;3.53;;;;;;;23.60;64.97;101334.41;5035692;28;20072;-69
2023/08/11 01:22:06;;;;;;;6.68;3.70;;;;;;;23.47;65.66;101331.06;5036813;28;20048;-68
2023/08/11 01:24:34;;;;;;;9.98;3.72;;;;;;;23.43;65.98;101333.81;5052865;28;20041;-69
2023/08/11 01:27:02;;;;;;;6.53;3.70;;;;;;;23.56;65.64;101348.44;5048131;28;20053;-68
2023/08/11 01:29:29;;;;;;;8.65;3.85;;;;;;;23.66;65.10;101346.94;5057184;28;20037;-69
2023/08/11 01:31:57;;;;;;;9.55;3.78;;;;;;;23.72;64.94;101351.00;5072837;28;20044;-69
2023/08/11 01:34:24;;;;;;;7.05;3.67;;;;;;;23.75;64.66;101345.41;5073167;28;20550;-68
2023/08/11 01:36:59;;;;;;;12.25;3.70;;;;;;;23.71;64.88;101350.19;5053062;28;20060;-70
2023/08/11 01:39:28;;;;;;;6.07;3.50;;;;;;;23.39;65.75;101358.31;5052729;28;20045;-68
2023/08/11 01:41:55;;;;;;;8.82;3.90;;;;;;;23.40;66.35;101353.47;5053638;28;20512;-68
2023/08/11 01:44:25;;;;;;;7.50;3.35;;;;;;;23.29;66.74;101358.97;5043236;28;20045;-67
2023/08/11 01:46:55;;;;;;;8.73;3.65;;;;;;;23.07;67.40;101350.63;5044716;28;20049;-68
2023/08/11 01:49:22;;;;;;;;;;;;;;;23.08;67.46;101350.25;5052230;28;20056;-69
2023/08/11 01:51:50;;;;;;;7.07;3.90;;;;;;;23.23;66.95;101362.50;5052243;28;19921;-67
2023/08/11 01:54:17;;;;;;;6.78;3.65;;;;;;;23.27;66.72;101364.16;5052582;28;20477;-68
2023/08/11 01:56:45;;;;;;;5.72;3.42;;;;;;;23.15;67.33;101366.41;5053641;28;20175;-68
2023/08/11 01:59:15;;;;;;;9.73;4.13;;;;;;;23.17;67.36;101364.03;5061240;28;20049;-68
2023/08/11 02:01:43;;;;;;;9.35;3.33;;;;;;;23.19;67.08;101368.06;5018036;28;20045;-68
2023/08/11 02:04:11;;;;;;;7.72;3.92;;;;;;;23.11;67.47;101369.19;5053610;28;20064;-68
2023/08/11 02:06:39;;;;;;;7.43;3.65;;;;;;;22.91;68.35;101364.09;5053265;28;20060;-68
2023/08/11 02:09:11;;;;;;;6.43;3.70;;;;;;;23.03;68.15;101353.41;5052391;28;20048;-68
2023/08/11 02:11:39;;;;;;;6.88;3.63;;;;;;;23.00;68.39;101351.38;5051759;28;20057;-69
2023/08/11 02:14:06;;;;;;;10.75;3.42;;;;;;;22.82;69.33;101357.94;5051504;28;20041;-68
2023/08/11 02:16:35;;;;;;;6.45;3.83;;;;;;;22.59;70.63;101363.66;5052934;28;20052;-69
2023/08/11 02:19:02;;;;;;;8.48;3.97;;;;;;;22.90;69.43;101354.03;5030599;28;20060;-68
2023/08/11 02:21:30;;;;;;;7.07;3.80;;;;;;;22.80;69.58;101346.28;5051837;28;20045;-69
2023/08/11 02:24:00;;;;;;;7.65;4.03;;;;;;;22.74;70.04;101359.03;5053523;28;20045;-69
2023/08/11 02:26:27;;;;;;;11.70;3.90;;;;;;;22.70;70.30;101353.34;5037221;28;20056;-69
2023/08/11 02:28:55;;;;;;;10.43;4.07;;;;;;;22.68;70.48;101360.56;5053164;28;20052;-69
2023/08/11 02:31:25;;;;;;;8.55;4.00;;;;;;;22.65;70.85;101359.31;5072202;28;20051;-69
2023/08/11 02:33:53;;;;;;;8.13;3.97;;;;;;;22.67;70.68;101351.31;5041461;28;20156;-69
2023/08/11 02:36:20;;;;;;;9.02;3.92;;;;;;;22.63;70.88;101355.28;5035176;28;20056;-68
2023/08/11 02:38:48;;;;;;;12.20;4.03;;;;;;;22.69;70.51;101354.56;5052551;28;20059;-68
2023/08/11 02:41:15;;;;;;;7.97;3.90;;;;;;;22.60;70.93;101351.22;5035145;28;20057;-68
2023/08/11 02:43:42;;;;;;;6.10;3.65;;;;;;;22.78;70.30;101348.66;5051421;28;20040;-69
2023/08/11 02:46:11;;;;;;;11.45;3.95;;;;;;;22.78;70.14;101352.28;5052037;28;20055;-69
2023/08/11 02:48:38;;;;;;;7.63;3.83;;;;;;;22.50;71.45;101362.25;5051252;28;20495;-69
2023/08/11 02:51:06;;;;;;;10.15;4.28;;;;;;;22.38;72.54;101354.06;5052129;28;20476;-69
2023/08/11 02:53:33;;;;;;;13.25;4.13;;;;;;;22.47;72.09;101363.84;5035032;28;20056;-69
2023/08/11 02:56:05;;;;;;;7.60;4.32;;;;;;;22.53;71.67;101358.69;5034916;28;20496;-69
2023/08/11 02:58:33;;;;;;;5.93;3.60;;;;;;;22.58;71.49;101359.19;5052796;28;20057;-69
2023/08/11 03:01:02;;;;;;;7.70;4.00;;;;;;;22.58;71.83;101362.00;5053544;28;20057;-68
2023/08/11 03:03:30;;;;;;;9.02;4.35;;;;;;;22.63;71.39;101358.88;5051136;28;20624;-69
2023/08/11 03:05:58;;;;;;;7.18;3.97;;;;;;;22.71;71.07;101356.97;5051401;28;20049;-68
2023/08/11 03:08:25;;;;;;;9.38;3.75;;;;;;;22.57;71.86;101357.59;5051402;28;20045;-68
2023/08/11 03:10:53;;;;;;;9.93;4.60;;;;;;;22.47;71.97;101360.22;5019430;28;20053;-69
2023/08/11 03:13:28;;;;;;;8.48;4.20;;;;;;;22.54;72.06;101361.16;5035408;28;20076;-68
2023/08/11 03:15:58;;;;;;;9.48;4.18;;;;;;;22.58;71.90;101361.22;5035508;28;20053;-69
2023/08/11 03:18:27;;;;;;;6.35;4.00;;;;;;;22.65;71.54;101364.91;5019418;28;20061;-68
2023/08/11 03:20:55;;;;;;;9.40;3.83;;;;;;;22.53;71.88;101362.31;5043870;28;20051;-68
2023/08/11 03:23:43;;;;;;;7.07;3.58;;;;;;;22.66;71.49;101371.34;5061022;28;20049;-70
2023/08/11 03:26:11;;;;;;;6.93;4.00;;;;;;;22.72;71.34;101362.22;5055915;28;20055;-69
2023/08/11 03:28:38;;;;;;;10.27;4.82;;;;;;;22.74;70.99;101371.06;5038413;28;20049;-68
2023/08/11 03:31:06;;;;;;;8.52;4.15;;;;;;;22.49;71.89;101364.25;5073767;28;20075;-69
2023/08/11 03:33:38;;;;;;;10.00;4.15;;;;;;;22.33;72.77;101367.22;5060142;28;20578;-68
2023/08/11 03:36:10;;;;;;;10.55;3.90;;;;;;;22.65;71.48;101367.72;5055231;28;20053;-68
2023/08/11 03:38:37;;;;;;;7.88;3.85;;;;;;;22.66;71.28;101360.94;5022348;28;20071;-69
2023/08/11 03:41:05;;;;;;;7.18;3.85;;;;;;;22.74;70.94;101356.22;5034484;28;20076;-69
2023/08/11 03:43:32;;;;;;;8.80;4.00;;;;;;;22.71;70.52;101352.19;5042172;28;20608;-70
2023/08/11 03:46:00;;;;;;;8.65;4.07;;;;;;;22.60;71.45;101350.41;5055180;28;20052;-69
2023/08/11 03:48:27;;;;;;;8.98;4.18;;;;;;;22.37;72.91;101353.22;5055045;28;20041;-69
2023/08/11 03:50:59;;;;;;;10.80;3.95;;;;;;;22.18;73.64;101353.34;5038577;28;20515;-69
2023/08/11 03:53:29;;;;;;;7.25;4.32;;;;;;;22.26;73.33;101350.25;5054440;28;20057;-68
2023/08/11 03:55:57;;;;;;;8.10;3.70;;;;;;;22.15;73.54;101346.50;5053952;28;20041;-70
2023/08/11 03:58:27;;;;;;;10.13;3.90;;;;;;;21.93;74.77;101344.50;5044283;28;20048;-68
2023/08/11 04:00:55;;;;;;;6.22;3.47;;;;;;;21.81;75.41;101344.69;5074471;28;20496;-71
2023/08/11 04:03:27;;;;;;;10.32;3.72;;;;;;;21.80;75.65;101339.47;5045990;28;20071;-69
2023/08/11 04:05:55;;;;;;;8.55;3.60;;;;;;;22.09;74.72;101342.38;5054474;28;20496;-69
2023/08/11 04:08:23;;;;;;;8.40;3.78;;;;;;;22.11;74.00;101340.00;5055736;28;20056;-68
2023/08/11 04:10:51;;;;;;;8.13;3.53;;;;;;;21.97;73.99;101341.75;5055115;28;20053;-67
2023/08/11 04:13:18;;;;;;;5.22;3.28;;;;;;;21.88;75.06;101350.44;5055360;28;20075;-68
2023/08/11 04:15:47;;;;;;;5.50;3.50;;;;;;;22.10;74.24;101344.00;5040086;28;20429;-68
2023/08/11 04:18:19;;;;;;;9.60;3.47;;;;;;;22.18;73.79;101339.28;5033384;28;20053;-67
2023/08/11 04:20:47;;;;;;;8.43;3.67;;;;;;;22.24;73.25;101338.63;5039633;28;20037;-69
2023/08/11 04:23:14;;;;;;;7.93;3.50;;;;;;;22.33;72.93;101336.34;5055246;28;20037;-68
2023/08/11 04:25:43;;;;;;;7.53;3.50;;;;;;;22.28;73.35;101342.28;5054624;28;20041;-67
2023/08/11 04:28:10;;;;;;;7.30;3.42;;;;;;;22.26;73.21;101332.63;5054936;28;20504;-68
2023/08/11 04:30:38;;;;;;;11.48;3.95;;;;;;;22.19;73.91;101336.09;5054231;28;20411;-68
2023/08/11 04:33:07;;;;;;;7.40;3.75;;;;;;;22.24;73.60;101343.41;5053417;28;20256;-69
2023/08/11 04:35:36;;;;;;;9.95;4.00;;;;;;;22.06;74.37;101336.69;5036785;28;20053;-69
2023/08/11 04:38:04;;;;;;;14.05;4.15;;;;;;;21.93;75.02;101347.31;5053997;28;20041;-69
2023/08/11 04:40:34;;;;;;;7.55;3.90;;;;;;;21.91;75.02;101344.09;5053520;28;20060;-69
2023/08/11 04:43:02;;;;;;;7.35;3.92;;;;;;;21.99;75.40;101342.19;5037203;28;20052;-69
2023/08/11 04:45:35;;;;;;;7.00;3.92;;;;;;;22.15;74.57;101340.06;5053420;28;20076;-68
2023/08/11 04:48:02;;;;;;;8.38;3.67;;;;;;;22.02;74.35;101336.63;5049777;28;20464;-69
2023/08/11 04:50:32;;;;;;;9.40;3.80;;;;;;;21.89;75.48;101349.25;5039144;28;20455;-71
2023/08/11 04:52:59;;;;;;;6.95;4.07;;;;;;;21.97;75.46;101350.16;5054721;28;20496;-69
2023/08/11 04:55:27;;;;;;;9.43;3.80;;;;;;;22.07;74.91;101349.56;5053285;28;20049;-69
2023/08/11 04:57:54;;;;;;;7.40;4.10;;;;;;;22.15;74.64;101340.06;5059976;28;20049;-68
2023/08/11 05:00:22;;;;;;;6.18;3.97;;;;;;;22.16;74.16;101341.66;5055834;28;20127;-68
2023/08/11 05:02:52;;;;;;;11.32;3.90;;;;;;;22.14;74.78;101341.25;5053879;28;20063;-69
2023/08/11 05:05:21;;;;;;;9.25;3.80;;;;;;;22.08;74.85;101340.75;5044902;28;20041;-69
2023/08/11 05:07:48;;;;;;;6.32;3.90;;;;;;;22.00;75.55;101341.03;5034704;28;20057;-68
2023/08/11 05:10:15;;;;;;;10.13;3.80;;;;;;;21.96;75.65;101340.16;5033258;28;20053;-69
2023/08/11 05:12:44;;;;;;;10.40;4.38;;;;;;;22.02;75.81;101342.25;5034355;28;20053;-69
2023/08/11 05:15:12;;;;;;;11.75;4.28;;;;;;;22.01;75.88;101342.63;5033101;28;20049;-69
2023/08/11 05:17:39;;;;;;;11.98;3.88;;;;;;;22.12;75.29;101336.00;5033076;28;20046;-68
2023/08/11 05:20:07;;;;;;;8.90;3.88;;;;;;;22.13;75.67;101346.06;5034544;28;20564;-68
2023/08/11 05:22:35;;;;;;;9.65;3.83;;;;;;;22.08;75.52;101332.34;5049553;28;20544;-69
2023/08/11 05:25:04;;;;;;;7.40;3.78;;;;;;;22.14;75.37;101344.84;5062557;28;20045;-70
2023/08/11 05:27:31;;;;;;;12.00;4.07;;;;;;;22.26;74.82;101349.47;5048820;28;20045;-68
2023/08/11 05:29:59;;;;;;;7.80;4.00;;;;;;;22.23;74.95;101342.59;5050351;28;20079;-69
2023/08/11 05:32:26;;;;;;;10.88;3.75;;;;;;;22.32;74.86;101336.72;5072374;28;20060;-69
2023/08/11 05:34:55;;;;;;;8.43;4.05;;;;;;;22.26;75.08;101338.25;5068414;28;20052;-69
2023/08/11 05:37:24;;;;;;;7.00;4.20;;;;;;;22.10;75.59;101332.78;5052242;28;20056;-70
2023/08/11 05:39:52;;;;;;;7.97;4.40;;;;;;;22.35;75.00;101338.78;5049317;28;20060;-69
2023/08/11 05:42:20;;;;;;;10.05;4.32;;;;;;;22.31;74.43;101340.72;5052541;28;20049;-69
2023/08/11 05:44:48;;;;;;;10.90;4.40;;;;;;;22.42;75.04;101352.13;5053474;28;20048;-68
2023/08/11 05:47:15;;;;;;;8.32;4.05;;;;;;;22.40;74.98;101360.09;5053182;28;20123;-70
2023/08/11 05:49:42;;;;;;;13.77;4.50;;;;;;;22.58;74.50;101366.84;5051993;28;20056;-70
2023/08/11 05:52:11;;;;;;;7.55;4.00;;;;;;;22.68;73.72;101358.56;5051477;28;20067;-69
2023/08/11 05:54:38;;;;;;;14.35;4.45;;;;;;;22.57;74.30;101362.41;5049705;28;20049;-69
2023/08/11 05:57:06;;;;;;;10.48;4.20;;;;;;;22.58;74.33;101364.03;5034533;28;20049;-68
2023/08/11 05:59:33;;;;;;;8.63;4.43;;;;;;;22.79;73.75;101358.69;5050839;28;20052;-68
2023/08/11 06:02:01;;;;;;;9.23;4.28;;;;;;;22.78;73.85;101359.88;5053316;28;20045;-67
2023/08/11 06:04:28;;;;;;;13.10;4.82;;;;;;;22.75;73.94;101364.25;5051852;28;20403;-68
2023/08/11 06:06:55;;;;;;;10.38;4.45;;;;;;;22.73;73.54;101372.28;5052286;28;20060;-70
2023/08/11 06:09:23;;;;;;;8.77;4.20;;;;;;;22.91;73.05;101375.34;5053836;28;20048;-69
2023/08/11 06:11:50;;;;;;;10.35;4.28;;;;;;;22.82;73.32;101369.19;5052381;28;20055;-70
2023/08/11 06:14:18;;;;;;;7.95;4.25;;;;;;;23.05;72.75;101367.06;5036715;28;20738;-69
2023/08/11 06:16:45;;;;;;;12.45;3.80;;;;;;;23.14;72.11;101359.16;5032451;28;20034;-70
2023/08/11 06:19:12;;;;;;;10.07;4.30;;;;;;;23.19;72.08;101367.25;5032678;28;20060;-70
2023/08/11 06:21:40;;;;;;;10.50;4.05;;;;;;;23.28;71.53;101360.19;5033983;28;20151;-69
2023/08/11 06:24:07;;;;;;;9.93;4.40;;;;;;;23.28;71.51;101356.56;5048945;28;20048;-69
2023/08/11 06:26:35;;;;;;;7.28;3.97;;;;;;;23.24;71.84;101369.75;5052808;28;20648;-69
2023/08/11 06:29:04;;;;;;;12.85;3.78;;;;;;;23.55;70.87;101372.13;5048194;28;20041;-69
2023/08/11 06:31:31;;;;;;;8.73;4.10;;;;;;;23.66;70.33;101370.22;5053422;28;20056;-68
2023/08/11 06:33:59;;;;;;;10.50;3.95;;;;;;;23.48;70.79;101377.69;5053071;28;20045;-68
2023/08/11 06:36:27;;;;;;;6.28;3.47;;;;;;;23.06;72.40;101372.34;5053140;28;20056;-70
2023/08/11 06:38:54;;;;;;;11.40;4.13;;;;;;;22.89;73.71;101375.69;5034864;28;20519;-69
2023/08/11 06:41:21;;;;;;;13.27;3.63;;;;;;;22.70;75.08;101381.44;5051607;28;20068;-69
2023/08/11 06:43:49;;;;;;;13.05;4.10;;;;;;;22.55;76.61;101379.63;5053123;28;20044;-68
2023/08/11 06:46:16;;;;;;;9.05;3.80;;;;;;;22.74;76.61;101387.13;5053310;28;20037;-69
2023/08/11 06:48:44;;;;;;;8.63;3.67;;;;;;;22.77;76.33;101384.34;5054686;28;20079;-70
2023/08/11 06:51:11;;;;;;;8.20;3.78;;;;;;;22.77;76.75;101389.19;5056957;28;20084;-69
2023/08/11 06:53:38;;;;;;;10.00;3.80;;;;;;;22.80;76.93;101391.22;5055849;28;20057;-69
2023/08/11 06:56:06;;;;;;;8.40;4.05;;;;;;;22.72;77.39;101401.53;5056091;28;20048;-70
2023/08/11 06:58:33;;;;;;;10.77;3.70;;;;;;;22.58;78.69;101404.13;5046508;28;20045;-69
2023/08/11 07:01:00;;;;;;;12.15;3.95;;;;;;;22.53;79.48;101409.22;5050368;28;20041;-69
2023/08/11 07:03:28;;;;;;;14.52;3.78;;;;;;;22.61;79.34;101409.00;5050633;28;20545;-69
2023/08/11 07:05:55;;;;;;;10.85;3.97;;;;;;;22.59;78.86;101408.56;5051170;28;20404;-69
2023/08/11 07:08:23;;;;;;;9.10;3.97;;;;;;;22.33;80.65;101403.72;5037127;28;20057;-68
2023/08/11 07:10:50;;;;;;;13.95;4.47;;;;;;;22.20;81.90;101407.09;5036903;28;20050;-70
2023/08/11 07:13:18;;;;;;;15.50;4.57;;;;;;;22.11;82.31;101418.56;5052226;28;20053;-71
2023/08/11 07:15:45;;;;;;;8.18;4.28;;;;;;;22.23;82.33;101411.94;5036398;28;20055;-68
2023/08/11 07:18:13;;;;;;;10.20;4.30;;;;;;;22.54;80.46;101422.94;5035244;28;20049;-70
2023/08/11 07:20:43;;;;;;;8.88;4.13;;;;;;;22.77;79.20;101423.69;5045713;28;20412;-69
2023/08/11 07:23:11;;;;;;;16.05;4.45;;;;;;;22.65;79.46;101420.31;5056558;28;20049;-69
2023/08/11 07:25:39;;;;;;;10.27;4.72;;;;;;;22.74;79.43;101426.44;5055323;28;20049;-69
2023/08/11 07:28:06;;;;;;;9.52;4.53;;;;;;;22.84;78.97;101439.84;5055614;28;20071;-68
2023/08/11 07:30:35;;;;;;;12.25;5.45;;;;;;;22.32;81.40;101443.38;5068290;28;20053;-69
2023/08/11 07:33:03;;;;;;;9.48;5.43;;;;;;;22.25;82.40;101446.88;5075053;28;20056;-69
2023/08/11 07:35:30;;;;;;;14.35;5.18;;;;;;;22.48;81.72;101444.06;5065149;28;20048;-68
2023/08/11 07:37:58;;;;;;;9.18;5.35;;;;;;;22.48;81.44;101443.25;5051712;28;20048;-71
2023/08/11 07:40:25;;;;;;;10.57;5.75;;;;;;;22.32;81.99;101458.25;5054945;28;20053;-68
2023/08/11 07:42:52;;;;;;;15.20;5.65;;;;;;;22.09;84.03;101454.63;5056198;28;20045;-69
2023/08/11 07:45:20;;;;;;;11.32;5.30;;;;;;;22.29;83.84;101452.56;5054398;28;20056;-70
2023/08/11 07:47:47;;;;;;;13.73;5.72;;;;;;;22.48;82.74;101452.50;5055639;28;20921;-69
2023/08/11 07:50:14;;;;;;;9.80;5.22;;;;;;;22.62;82.19;101446.31;5055949;28;20053;-69
2023/08/11 07:52:43;;;;;;;11.05;5.53;;;;;;;22.73;81.72;101455.72;5056189;28;20059;-71
2023/08/11 07:55:11;;;;;;;11.05;6.03;;;;;;;22.77;80.66;101462.22;5050590;28;20053;-69
2023/08/11 07:57:38;;;;;;;8.27;5.80;;;;;;;22.88;80.50;101457.56;5073747;28;20060;-70
2023/08/11 08:00:09;;;;;;;11.30;5.55;;;;;;;23.10;78.91;101453.88;5074552;28;20048;-68
2023/08/11 08:02:42;;;;;;;11.48;5.65;;;;;;;23.50;78.18;101454.03;5075390;28;20419;-68
2023/08/11 08:05:11;;;;;;;12.05;5.45;;;;;;;23.49;77.51;101458.03;5074369;28;20053;-69
2023/08/11 08:07:42;;;;;;;10.88;5.18;;;;;;;23.53;76.51;101467.34;5024436;28;20045;-69
2023/08/11 08:10:10;;;;;;;13.32;5.13;;;;;;;23.40;77.75;101460.31;5054306;28;20373;-69
2023/08/11 08:12:38;;;;;;;11.07;5.03;;;;;;;23.74;75.96;101466.78;5050445;28;20049;-69
2023/08/11 08:15:08;;;;;;;10.70;5.75;;;;;;;23.82;75.36;101469.28;5055515;28;20056;-69
2023/08/11 08:17:35;;;;;;;10.30;5.13;;;;;;;23.75;75.80;101459.94;5055324;28;20045;-70
2023/08/11 08:20:13;;;;;;;10.38;4.72;;;;;;;23.95;75.15;101473.47;5054246;28;20496;-68
2023/08/11 08:22:41;;;;;;;9.55;4.55;;;;;;;24.16;73.96;101468.09;5055480;28;20075;-69
2023/08/11 08:25:09;;;;;;;8.45;5.15;;;;;;;24.11;73.87;101457.16;5055123;28;20051;-69
2023/08/11 08:27:38;;;;;;;9.57;4.82;;;;;;;24.21;72.97;101469.72;5051890;28;20511;-69
2023/08/11 08:30:09;;;;;;;11.98;4.72;;;;;;;24.27;72.42;101459.72;5063813;28;20071;-70
2023/08/11 08:32:36;;;;;;;;;;;;;;;24.07;72.91;101461.13;5075059;28;20056;-70
2023/08/11 08:35:06;;;;;;;11.02;4.65;;;;;;;24.17;73.29;101468.88;5055089;28;20281;-69
2023/08/11 08:37:33;;;;;;;9.33;5.10;;;;;;;24.24;72.15;101466.13;5054853;28;20067;-69
2023/08/11 08:40:01;;;;;;;10.60;4.85;;;;;;;23.93;72.83;101466.59;5053385;28;20061;-69
2023/08/11 08:42:29;;;;;;;10.77;4.95;;;;;;;24.31;72.29;101461.38;5053432;28;20072;-69
2023/08/11 08:44:57;;;;;;;12.65;4.53;;;;;;;24.78;70.10;101449.31;5053657;28;20053;-69
2023/08/11 08:47:26;;;;;;;9.40;4.43;;;;;;;25.09;68.64;101456.38;5053503;28;20057;-70
2023/08/11 08:49:54;;;;;;;8.95;4.57;;;;;;;25.09;67.72;101453.56;5054650;28;20049;-69
2023/08/11 08:52:22;;;;;;;8.10;4.55;;;;;;;25.15;67.32;101447.13;5053619;28;20061;-69
2023/08/11 08:54:49;;;;;;;9.40;4.32;;;;;;;25.09;68.25;101453.56;5053761;28;20067;-69
2023/08/11 08:57:17;;;;;;;10.40;4.50;;;;;;;25.33;67.80;101455.69;5053440;28;20415;-69
2023/08/11 08:59:44;;;;;;;7.47;3.95;;;;;;;25.16;67.14;101462.03;5054411;28;20059;-69
2023/08/11 09:02:12;;;;;;;9.98;5.13;;;;;;;24.59;69.14;101468.44;5050155;28;20057;-68
2023/08/11 09:04:41;;;;;;;12.48;5.63;;;;;;;24.38;70.57;101469.06;5053290;28;20045;-70
2023/08/11 09:07:09;;;;;;;9.73;5.30;;;;;;;24.51;70.19;101462.75;5053422;28;20514;-67
2023/08/11 09:09:40;;;;;;;9.02;4.72;;;;;;;24.60;69.79;101461.63;5053107;28;20056;-69
2023/08/11 09:12:08;;;;;;;11.88;4.50;;;;;;;25.03;68.52;101449.47;5054403;28;20060;-68
2023/08/11 09:14:37;;;;;;;10.75;4.40;;;;;;;25.36;67.32;101450.09;5054646;28;20083;-71
2023/08/11 09:17:05;;;;;;;11.02;4.57;;;;;;;25.65;65.97;101444.56;5053397;28;20049;-68
2023/08/11 09:19:36;;;;;;;9.82;5.70;;;;;;;25.45;66.86;101456.16;5044132;28;20519;-68
2023/08/11 09:22:09;;;;;;;13.10;4.68;;;;;;;25.82;65.34;101458.72;5052716;28;20053;-69
2023/08/11 09:24:38;;;;;;;7.45;4.63;;;;;;;25.97;64.28;101456.75;5052904;28;20064;-67
2023/08/11 09:27:06;;;;;;;10.15;4.40;;;;;;;25.53;65.45;101457.81;5052541;28;20052;-69
2023/08/11 09:29:35;;;;;;;9.55;4.47;;;;;;;25.49;65.56;101471.09;5058498;28;20052;-70
2023/08/11 09:32:04;;;;;;;8.43;4.63;;;;;;;25.75;65.01;101474.84;5074134;28;20395;-69
2023/08/11 09:34:31;;;;;;;7.97;4.38;;;;;;;25.74;64.59;101478.84;5052949;28;20055;-69
2023/08/11 09:36:59;;;;;;;10.18;4.38;;;;;;;25.76;64.74;101485.72;5049537;28;20507;-69
2023/08/11 09:39:28;;;;;;;8.02;4.45;;;;;;;25.65;65.05;101486.91;5053855;28;20060;-68
2023/08/11 09:41:56;;;;;;;11.05;4.78;;;;;;;25.78;64.70;101479.69;5053699;28;20061;-69
2023/08/11 09:44:24;;;;;;;9.93;4.20;;;;;;;25.90;64.04;101476.47;5054527;28;20056;-68
2023/08/11 09:46:51;;;;;;;9.20;4.65;;;;;;;26.01;63.43;101486.63;5053788;28;20053;-68
2023/08/11 09:49:20;;;;;;;13.75;4.30;;;;;;;25.68;64.38;101486.09;5053485;28;20115;-69
2023/08/11 09:51:49;;;;;;;9.57;3.92;;;;;;;25.45;65.51;101492.03;5053431;28;20082;-70
2023/08/11 09:54:18;;;;;;;10.40;3.93;;;;;;;25.40;66.33;101490.38;5047017;28;20412;-69
2023/08/11 09:56:45;;;;;;;9.88;4.45;;;;;;;25.87;64.45;101492.22;5043123;28;20566;-69
2023/08/11 09:59:17;;;;;;;9.82;4.72;;;;;;;25.69;65.29;101494.16;5053703;28;20056;-70
2023/08/11 10:01:44;;;;;;;10.05;5.10;;;;;;;25.86;65.11;101492.59;5052416;28;20060;-69
2023/08/11 10:04:31;;;;;;;7.70;4.10;;;;;;;25.94;64.57;101483.78;5052909;28;20053;-68
2023/08/11 10:06:59;;;;;;;12.23;4.20;;;;;;;26.14;63.93;101492.69;5053222;28;20040;-70
2023/08/11 10:09:29;;;;;;;11.43;3.90;;;;;;;26.39;62.07;101485.09;5051855;28;20507;-69
2023/08/11 10:11:57;;;;;;;12.32;3.97;;;;;;;26.33;62.54;101481.03;5032800;28;20049;-69
2023/08/11 10:14:26;;;;;;;10.00;3.53;;;;;;;26.56;61.34;101490.75;5033138;28;20560;-70
2023/08/11 10:16:54;;;;;;;7.75;3.20;;;;;;;26.40;60.88;101483.84;5033698;28;20049;-70
2023/08/11 10:19:21;;;;;;;9.82;3.75;;;;;;;25.80;63.26;101482.91;5032331;28;20053;-69
2023/08/11 10:21:49;;;;;;;8.40;3.58;;;;;;;25.91;63.67;101467.59;5047933;28;20427;-69
2023/08/11 10:24:16;;;;;;;8.68;4.80;;;;;;;26.07;63.20;101468.09;5050864;28;20048;-67
2023/08/11 10:26:44;;;;;;;8.93;4.25;;;;;;;25.86;62.51;101470.81;5052325;28;20049;-69
2023/08/11 10:29:11;;;;;;;10.02;4.22;;;;;;;25.54;64.12;101472.75;5036721;28;20049;-69
2023/08/11 10:31:53;;;;;;;8.82;3.95;;;;;;;25.79;63.80;101465.16;5066338;28;20496;-70
2023/08/11 10:34:23;;;;;;;12.00;5.22;;;;;;;26.02;62.83;101473.28;5053556;28;20060;-70
2023/08/11 10:36:53;;;;;;;14.10;6.85;;;;;;;26.42;61.73;101476.63;5051267;28;20052;-69
2023/08/11 10:39:21;;;;;;;11.32;5.70;;;;;;;26.63;59.85;101475.81;5052017;28;20052;-68
2023/08/11 10:41:49;;;;;;;13.18;4.78;;;;;;;26.67;59.13;101474.59;5051045;28;20065;-68
2023/08/11 10:44:20;;;;;;;18.50;5.85;;;;;;;26.62;59.55;101474.97;5030807;28;20048;-68
2023/08/11 10:46:50;;;;;;;20.38;15.40;;;;;;;26.57;60.07;101472.56;5053314;28;20037;-70
2023/08/11 10:49:22;;;;;;;18.25;9.05;;;;;;;26.84;59.53;101472.19;5047657;28;20057;-69
2023/08/11 10:51:52;;;;;;;12.35;5.78;;;;;;;27.16;58.34;101472.94;5049174;28;20053;-68
2023/08/11 10:54:23;;;;;;;10.70;4.75;;;;;;;26.74;59.34;101473.81;5052936;28;20060;-71
2023/08/11 10:56:52;;;;;;;9.45;5.05;;;;;;;26.75;59.05;101471.78;5052847;28;20052;-69
2023/08/11 10:59:25;;;;;;;13.57;6.28;;;;;;;26.94;59.10;101471.34;5052762;28;20049;-69
2023/08/11 11:01:55;;;;;;;10.57;4.75;;;;;;;27.30;58.25;101470.09;5051228;28;20060;-70
2023/08/11 11:04:27;;;;;;;11.52;6.53;;;;;;;27.05;58.15;101487.09;5035915;28;20056;-70
2023/08/11 11:06:54;;;;;;;8.63;5.22;;;;;;;27.07;58.17;101467.72;5033173;28;20084;-69
2023/08/11 11:09:22;;;;;;;13.18;5.18;;;;;;;26.75;59.04;101485.91;5033251;28;20064;-69
2023/08/11 11:11:51;;;;;;;12.73;4.65;;;;;;;26.39;60.04;101485.91;5031780;28;20053;-69
2023/08/11 11:14:19;;;;;;;10.23;4.20;;;;;;;26.28;60.16;101482.25;5035654;28;20064;-69
2023/08/11 11:16:46;;;;;;;13.20;5.38;;;;;;;26.21;60.64;101481.41;5053066;28;20049;-69
2023/08/11 11:19:14;;;;;;;15.48;5.47;;;;;;;26.25;60.71;101488.72;5049338;28;20052;-71
2023/08/11 11:21:41;;;;;;;10.07;5.35;;;;;;;26.01;61.71;101488.63;5051833;28;20060;-69
2023/08/11 11:24:11;;;;;;;8.38;4.32;;;;;;;26.25;61.02;101487.88;5052635;28;20045;-68
2023/08/11 11:26:38;;;;;;;13.27;5.22;;;;;;;26.11;61.00;101488.69;5035415;28;20049;-68
2023/08/11 11:29:06;;;;;;;12.07;4.70;;;;;;;26.01;61.01;101480.97;5053592;28;20041;-70